PRIVATE WETTERSTATION BILLIGHEIM-ALLFELD                       ZURCK
Wetterdaten: Donnerstag, 17.02.2022
Datum Zeit Temp. A. Temp. A. min Temp. A. max Feuchte A. Luftdruck Regen Wind Richtung Richtung Sonnenschein ET Solar Taupunkt Windchill Windben Empfang
17.02.2022 00:00 11,2 C 11,1 C 11,2 C 91 % 1001,1 hPa 0,0 l/m 22,5 km/h (4 Bft) SW 225 0 min 0,025 mm 0 W/m 9,8 C 4,1 C 51,5 km/h (7 Bft) 99 %
17.02.2022 00:10 11,4 C 11,2 C 11,4 C 90 % 1001,0 hPa 0,0 l/m 24,1 km/h (4 Bft) SW 225 0 min 0,000 mm 0 W/m 9,8 C 4,0 C 56,3 km/h (7 Bft) 79 %
17.02.2022 00:20 11,6 C 11,4 C 11,6 C 89 % 1001,0 hPa 0,0 l/m 25,7 km/h (4 Bft) W-SW 247 0 min 0,000 mm 0 W/m 9,8 C 3,8 C 49,9 km/h (6 Bft) 100 %
17.02.2022 00:30 11,7 C 11,6 C 11,7 C 89 % 1000,8 hPa 0,0 l/m 20,9 km/h (4 Bft) SW 225 0 min 0,000 mm 0 W/m 9,9 C 5,2 C 64,4 km/h (8 Bft) 100 %
17.02.2022 00:40 11,7 C 11,6 C 11,7 C 88 % 1000,9 hPa 0,0 l/m 24,1 km/h (4 Bft) W-SW 247 0 min 0,000 mm 0 W/m 9,8 C 4,4 C 57,9 km/h (7 Bft) 100 %
17.02.2022 00:50 11,7 C 11,7 C 11,7 C 89 % 1001,1 hPa 0,0 l/m 29,0 km/h (5 Bft) W-SW 247 0 min 0,000 mm 0 W/m 9,9 C 3,2 C 59,5 km/h (7 Bft) 99 %
17.02.2022 01:00 11,6 C 11,6 C 11,7 C 89 % 1000,8 hPa 0,0 l/m 29,0 km/h (5 Bft) W-SW 247 0 min 0,025 mm 0 W/m 9,8 C 3,1 C 54,7 km/h (7 Bft) 100 %
17.02.2022 01:10 11,6 C 11,6 C 11,6 C 89 % 1000,8 hPa 0,0 l/m 30,6 km/h (5 Bft) SW 225 0 min 0,000 mm 0 W/m 9,8 C 2,8 C 54,7 km/h (7 Bft) 100 %
17.02.2022 01:20 11,3 C 11,2 C 11,6 C 91 % 1000,5 hPa 0,0 l/m 24,1 km/h (4 Bft) SW 225 0 min 0,000 mm 0 W/m 9,9 C 3,8 C 49,9 km/h (6 Bft) 100 %
17.02.2022 01:30 11,1 C 11,1 C 11,2 C 91 % 1000,6 hPa 0,0 l/m 29,0 km/h (5 Bft) SW 225 0 min 0,000 mm 0 W/m 9,7 C 2,4 C 53,1 km/h (7 Bft) 100 %
17.02.2022 01:40 11,1 C 11,1 C 11,1 C 91 % 1000,4 hPa 0,0 l/m 27,4 km/h (4 Bft) SW 225 0 min 0,000 mm 0 W/m 9,7 C 2,8 C 64,4 km/h (8 Bft) 100 %
17.02.2022 01:50 11,2 C 11,1 C 11,2 C 90 % 1000,7 hPa 0,0 l/m 25,7 km/h (4 Bft) SW 225 0 min 0,000 mm 0 W/m 9,6 C 3,3 C 53,1 km/h (7 Bft) 100 %
17.02.2022 02:00 11,1 C 11,1 C 11,2 C 91 % 1000,7 hPa 0,2 l/m 29,0 km/h (5 Bft) SW 225 0 min 0,025 mm 0 W/m 9,7 C 2,4 C 54,7 km/h (7 Bft) 100 %
17.02.2022 02:10 10,8 C 10,8 C 11,1 C 92 % 1000,8 hPa 0,0 l/m 20,9 km/h (4 Bft) SW 225 0 min 0,000 mm 0 W/m 9,6 C 4,0 C 46,7 km/h (6 Bft) 100 %
17.02.2022 02:20 10,7 C 10,7 C 10,8 C 92 % 1000,3 hPa 0,0 l/m 17,7 km/h (3 Bft) SW 225 0 min 0,000 mm 0 W/m 9,5 C 5,0 C 46,7 km/h (6 Bft) 100 %
17.02.2022 02:30 10,6 C 10,6 C 10,7 C 92 % 1000,5 hPa 0,0 l/m 24,1 km/h (4 Bft) SW 225 0 min 0,000 mm 0 W/m 9,4 C 2,9 C 59,5 km/h (7 Bft) 100 %
17.02.2022 02:40 10,6 C 10,6 C 10,6 C 92 % 1000,4 hPa 0,2 l/m 22,5 km/h (4 Bft) SW 225 0 min 0,000 mm 0 W/m 9,4 C 3,3 C 53,1 km/h (7 Bft) 100 %
17.02.2022 02:50 10,6 C 10,6 C 10,6 C 92 % 1000,4 hPa 0,0 l/m 17,7 km/h (3 Bft) SW 225 0 min 0,000 mm 0 W/m 9,4 C 4,8 C 45,1 km/h (6 Bft) 100 %
17.02.2022 03:00 10,5 C 10,5 C 10,6 C 92 % 1000,1 hPa 0,2 l/m 20,9 km/h (4 Bft) SW 225 0 min 0,025 mm 0 W/m 9,3 C 3,7 C 45,1 km/h (6 Bft) 100 %
17.02.2022 03:10 10,4 C 10,4 C 10,5 C 92 % 1000,0 hPa 0,0 l/m 17,7 km/h (3 Bft) SW 225 0 min 0,000 mm 0 W/m 9,2 C 4,6 C 40,2 km/h (6 Bft) 100 %
17.02.2022 03:20 10,4 C 10,4 C 10,4 C 92 % 999,6 hPa 0,0 l/m 24,1 km/h (4 Bft) SW 225 0 min 0,000 mm 0 W/m 9,2 C 2,6 C 53,1 km/h (7 Bft) 100 %
17.02.2022 03:30 10,4 C 10,4 C 10,4 C 92 % 999,4 hPa 0,0 l/m 30,6 km/h (5 Bft) S-SW 202 0 min 0,000 mm 0 W/m 9,2 C 1,1 C 56,3 km/h (7 Bft) 100 %
17.02.2022 03:40 10,4 C 10,4 C 10,4 C 92 % 999,5 hPa 0,0 l/m 22,5 km/h (4 Bft) SW 225 0 min 0,000 mm 0 W/m 9,2 C 3,0 C 48,3 km/h (6 Bft) 100 %
17.02.2022 03:50 10,4 C 10,4 C 10,4 C 92 % 999,3 hPa 0,2 l/m 24,1 km/h (4 Bft) S-SW 202 0 min 0,000 mm 0 W/m 9,2 C 2,6 C 48,3 km/h (6 Bft) 100 %
17.02.2022 04:00 10,5 C 10,4 C 10,5 C 92 % 999,3 hPa 0,0 l/m 22,5 km/h (4 Bft) SW 225 0 min 0,025 mm 0 W/m 9,3 C 3,2 C 49,9 km/h (6 Bft) 100 %
17.02.2022 04:10 10,7 C 10,5 C 10,7 C 92 % 999,2 hPa 0,1 l/m 20,9 km/h (4 Bft) SW 225 0 min 0,000 mm 0 W/m 9,5 C 3,9 C 51,5 km/h (7 Bft) 100 %
17.02.2022 04:20 10,9 C 10,7 C 10,9 C 92 % 999,2 hPa 0,2 l/m 25,7 km/h (4 Bft) SW 225 0 min 0,000 mm 0 W/m 9,7 C 2,9 C 57,9 km/h (7 Bft) 100 %
17.02.2022 04:30 11,1 C 10,9 C 11,1 C 92 % 999,4 hPa 0,2 l/m 29,0 km/h (5 Bft) SW 225 0 min 0,000 mm 0 W/m 9,8 C 2,4 C 57,9 km/h (7 Bft) 100 %
17.02.2022 04:40 11,1 C 11,1 C 11,2 C 92 % 999,6 hPa 0,4 l/m 24,1 km/h (4 Bft) W-SW 247 0 min 0,000 mm 0 W/m 9,8 C 3,6 C 53,1 km/h (7 Bft) 100 %
17.02.2022 04:50 11,2 C 11,1 C 11,2 C 92 % 999,6 hPa 0,4 l/m 27,4 km/h (4 Bft) SW 225 0 min 0,000 mm 0 W/m 9,9 C 2,9 C 53,1 km/h (7 Bft) 100 %
17.02.2022 05:00 10,9 C 10,9 C 11,2 C 92 % 999,7 hPa 1,0 l/m 25,7 km/h (4 Bft) W-SW 247 0 min 0,025 mm 0 W/m 9,7 C 2,9 C 54,7 km/h (7 Bft) 100 %
17.02.2022 05:10 10,8 C 10,8 C 10,9 C 92 % 999,8 hPa 0,8 l/m 22,5 km/h (4 Bft) SW 225 0 min 0,000 mm 0 W/m 9,6 C 3,6 C 49,9 km/h (6 Bft) 100 %
17.02.2022 05:20 11,0 C 10,8 C 11,0 C 92 % 1000,3 hPa 0,2 l/m 29,0 km/h (5 Bft) SW 225 0 min 0,000 mm 0 W/m 9,8 C 2,3 C 66,0 km/h (8 Bft) 100 %
17.02.2022 05:30 10,9 C 10,9 C 11,0 C 92 % 999,9 hPa 0,0 l/m 17,7 km/h (3 Bft) W-SW 247 0 min 0,000 mm 0 W/m 9,7 C 5,2 C 46,7 km/h (6 Bft) 92 %
17.02.2022 05:40 11,0 C 10,9 C 11,0 C 91 % 1000,5 hPa 0,0 l/m 19,3 km/h (3 Bft) W-SW 247 0 min 0,000 mm 0 W/m 9,6 C 4,8 C 51,5 km/h (7 Bft) 100 %
17.02.2022 05:50 11,1 C 11,0 C 11,1 C 91 % 1000,7 hPa 0,0 l/m 20,9 km/h (4 Bft) W-SW 247 0 min 0,000 mm 0 W/m 9,7 C 4,4 C 56,3 km/h (7 Bft) 100 %
17.02.2022 06:00 11,1 C 11,1 C 11,1 C 88 % 1001,2 hPa 0,0 l/m 24,1 km/h (4 Bft) W 270 0 min 0,025 mm 0 W/m 9,2 C 3,6 C 56,3 km/h (7 Bft) 100 %
17.02.2022 06:10 11,1 C 11,1 C 11,1 C 87 % 1001,3 hPa 0,0 l/m 16,1 km/h (3 Bft) W 270 0 min 0,000 mm 0 W/m 9,0 C 6,0 C 43,5 km/h (6 Bft) 100 %
17.02.2022 06:20 11,1 C 11,1 C 11,1 C 84 % 1001,5 hPa 0,0 l/m 19,5 km/h (3 Bft) W 264 0 min 0,000 mm 0 W/m 8,5 C 4,9 C 40,2 km/h (6 Bft) 100 %
17.02.2022 06:30 11,1 C 11,0 C 11,1 C 80 % 1001,9 hPa 0,0 l/m 16,7 km/h (3 Bft) W 261 0 min 0,000 mm 0 W/m 7,8 C 5,8 C 49,9 km/h (6 Bft) 100 %
17.02.2022 06:40 10,9 C 10,9 C 11,1 C 77 % 1001,9 hPa 0,0 l/m 24,8 km/h (4 Bft) W 264 0 min 0,000 mm 0 W/m 7,0 C 3,1 C 56,3 km/h (7 Bft) 100 %
17.02.2022 06:50 10,8 C 10,8 C 10,9 C 76 % 1002,3 hPa 0,0 l/m 24,5 km/h (4 Bft) W-NW 284 0 min 0,000 mm 0 W/m 6,7 C 3,0 C 51,5 km/h (7 Bft) 100 %
17.02.2022 07:00 10,7 C 10,7 C 10,8 C 74 % 1002,5 hPa 0,0 l/m 26,7 km/h (4 Bft) W 272 0 min 0,028 mm 0 W/m 6,3 C 2,4 C 53,1 km/h (7 Bft) 100 %
17.02.2022 07:10 10,6 C 10,6 C 10,7 C 73 % 1002,6 hPa 0,0 l/m 23,1 km/h (4 Bft) W-NW 295 0 min 0,000 mm 0 W/m 6,0 C 3,1 C 49,9 km/h (6 Bft) 100 %
17.02.2022 07:20 10,6 C 10,6 C 10,6 C 72 % 1002,8 hPa 0,0 l/m 21,5 km/h (4 Bft) W-NW 297 0 min 0,000 mm 0 W/m 5,8 C 3,6 C 57,9 km/h (7 Bft) 100 %
17.02.2022 07:30 10,4 C 10,4 C 10,6 C 73 % 1002,9 hPa 0,0 l/m 10,0 km/h (2 Bft) W 260 0 min 0,000 mm 0 W/m 5,8 C 8,0 C 40,2 km/h (6 Bft) 100 %
17.02.2022 07:40 10,2 C 10,2 C 10,4 C 73 % 1003,2 hPa 0,0 l/m 7,3 km/h (2 Bft) W 275 0 min 0,000 mm 9 W/m 5,6 C 9,6 C 30,6 km/h (5 Bft) 100 %
17.02.2022 07:50 10,2 C 10,2 C 10,2 C 73 % 1003,5 hPa 0,0 l/m 9,1 km/h (2 Bft) W 263 0 min 0,000 mm 16 W/m 5,6 C 8,4 C 43,5 km/h (6 Bft) 100 %
17.02.2022 08:00 10,1 C 10,1 C 10,2 C 73 % 1003,8 hPa 0,0 l/m 8,0 km/h (2 Bft) W-SW 258 0 min 0,051 mm 32 W/m 5,5 C 9,0 C 22,5 km/h (4 Bft) 91 %
17.02.2022 08:10 10,1 C 10,1 C 10,1 C 74 % 1003,8 hPa 0,0 l/m 5,2 km/h (1 Bft) W 263 0 min 0,000 mm 53 W/m 5,7 C 10,1 C 30,6 km/h (5 Bft) 100 %
17.02.2022 08:20 10,3 C 10,1 C 10,3 C 74 % 1004,0 hPa 0,0 l/m 10,2 km/h (2 Bft) W 273 0 min 0,000 mm 37 W/m 5,9 C 7,8 C 43,5 km/h (6 Bft) 100 %
17.02.2022 08:30 10,4 C 10,3 C 10,4 C 72 % 1004,2 hPa 0,0 l/m 14,8 km/h (3 Bft) W 266 0 min 0,000 mm 28 W/m 5,6 C 5,7 C 40,2 km/h (6 Bft) 100 %
17.02.2022 08:40 10,5 C 10,4 C 10,5 C 72 % 1004,4 hPa 0,0 l/m 21,4 km/h (4 Bft) NW 317 0 min 0,000 mm 42 W/m 5,7 C 3,5 C 49,9 km/h (6 Bft) 100 %
17.02.2022 08:50 10,7 C 10,5 C 10,7 C 70 % 1004,4 hPa 0,0 l/m 12,6 km/h (3 Bft) W-NW 287 0 min 0,000 mm 39 W/m 5,5 C 7,0 C 38,6 km/h (5 Bft) 100 %
17.02.2022 09:00 10,7 C 10,6 C 10,7 C 69 % 1004,8 hPa 0,0 l/m 22,8 km/h (4 Bft) W 268 10 min 0,076 mm 218 W/m 5,2 C 3,4 C 64,4 km/h (8 Bft) 100 %
17.02.2022 09:10 10,6 C 10,6 C 10,7 C 69 % 1004,9 hPa 0,0 l/m 16,9 km/h (3 Bft) W-NW 292 0 min 0,000 mm 62 W/m 5,2 C 5,1 C 54,7 km/h (7 Bft) 99 %
17.02.2022 09:20 10,4 C 10,4 C 10,6 C 68 % 1005,4 hPa 0,0 l/m 12,3 km/h (3 Bft) W-SW 240 0 min 0,000 mm 67 W/m 4,8 C 6,8 C 49,9 km/h (6 Bft) 100 %
17.02.2022 09:30 10,4 C 10,4 C 10,4 C 68 % 1005,4 hPa 0,0 l/m 25,0 km/h (4 Bft) W-SW 242 0 min 0,000 mm 32 W/m 4,8 C 2,4 C 51,5 km/h (7 Bft) 100 %
17.02.2022 09:40 10,3 C 10,2 C 10,4 C 70 % 1005,6 hPa 0,0 l/m 19,9 km/h (4 Bft) W-NW 292 0 min 0,000 mm 76 W/m 5,1 C 3,7 C 43,5 km/h (6 Bft) 91 %
17.02.2022 09:50 10,2 C 10,2 C 10,3 C 70 % 1005,9 hPa 0,0 l/m 25,5 km/h (4 Bft) W 275 0 min 0,000 mm 95 W/m 5,0 C 2,0 C 49,9 km/h (6 Bft) 100 %
17.02.2022 10:00 10,2 C 10,2 C 10,2 C 69 % 1006,1 hPa 0,0 l/m 24,9 km/h (4 Bft) W 275 0 min 0,102 mm 91 W/m 4,8 C 2,1 C 49,9 km/h (6 Bft) 100 %
17.02.2022 10:10 10,1 C 10,1 C 10,2 C 67 % 1006,3 hPa 0,0 l/m 12,7 km/h (3 Bft) W 260 0 min 0,000 mm 84 W/m 4,3 C 6,3 C 40,2 km/h (6 Bft) 100 %
17.02.2022 10:20 10,1 C 10,1 C 10,1 C 67 % 1006,3 hPa 0,0 l/m 20,9 km/h (4 Bft) W-SW 258 0 min 0,000 mm 77 W/m 4,3 C 3,1 C 51,5 km/h (7 Bft) 100 %
17.02.2022 10:30 10,0 C 10,0 C 10,1 C 67 % 1006,8 hPa 0,0 l/m 15,7 km/h (3 Bft) W-SW 255 10 min 0,000 mm 174 W/m 4,2 C 4,8 C 48,3 km/h (6 Bft) 100 %
17.02.2022 10:40 10,2 C 10,0 C 10,2 C 66 % 1006,8 hPa 0,0 l/m 16,9 km/h (3 Bft) W 261 0 min 0,000 mm 111 W/m 4,1 C 4,6 C 53,1 km/h (7 Bft) 100 %
17.02.2022 10:50 9,9 C 9,9 C 10,2 C 69 % 1006,8 hPa 0,0 l/m 24,2 km/h (4 Bft) W-SW 250 0 min 0,000 mm 70 W/m 4,5 C 1,9 C 51,5 km/h (7 Bft) 100 %
17.02.2022 11:00 9,6 C 9,6 C 9,9 C 71 % 1006,9 hPa 0,0 l/m 11,2 km/h (2 Bft) NW 304 0 min 0,101 mm 49 W/m 4,6 C 6,5 C 40,2 km/h (6 Bft) 100 %
17.02.2022 11:10 9,4 C 9,4 C 9,6 C 73 % 1006,7 hPa 0,0 l/m 13,8 km/h (3 Bft) W 281 0 min 0,000 mm 135 W/m 4,8 C 4,9 C 38,6 km/h (5 Bft) 100 %
17.02.2022 11:20 9,5 C 9,4 C 9,5 C 72 % 1006,6 hPa 0,0 l/m 14,5 km/h (3 Bft) W-SW 239 0 min 0,000 mm 104 W/m 4,7 C 4,7 C 53,1 km/h (7 Bft) 100 %
17.02.2022 11:30 9,7 C 9,5 C 9,7 C 70 % 1006,9 hPa 0,0 l/m 13,7 km/h (3 Bft) W-SW 244 0 min 0,000 mm 53 W/m 4,5 C 5,3 C 41,8 km/h (6 Bft) 100 %
17.02.2022 11:40 9,8 C 9,7 C 9,8 C 69 % 1007,1 hPa 0,0 l/m 15,6 km/h (3 Bft) W-SW 257 0 min 0,000 mm 118 W/m 4,4 C 4,6 C 46,7 km/h (6 Bft) 100 %
17.02.2022 11:50 10,1 C 9,8 C 10,1 C 68 % 1007,6 hPa 0,0 l/m 14,7 km/h (3 Bft) W-NW 296 0 min 0,000 mm 146 W/m 4,5 C 5,4 C 38,6 km/h (5 Bft) 100 %
17.02.2022 12:00 10,1 C 10,1 C 10,1 C 67 % 1007,7 hPa 0,1 l/m 17,9 km/h (3 Bft) W-SW 256 0 min 0,102 mm 107 W/m 4,3 C 4,1 C 48,3 km/h (6 Bft) 100 %
17.02.2022 12:10 9,9 C 9,9 C 10,1 C 67 % 1007,5 hPa 0,2 l/m 10,8 km/h (2 Bft) W-SW 247 0 min 0,000 mm 56 W/m 4,1 C 7,0 C 38,6 km/h (5 Bft) 100 %
17.02.2022 12:20 9,3 C 9,3 C 9,9 C 75 % 1007,8 hPa 0,2 l/m 14,7 km/h (3 Bft) SW 227 0 min 0,000 mm 46 W/m 5,1 C 4,4 C 40,2 km/h (6 Bft) 100 %
17.02.2022 12:30 8,7 C 8,7 C 9,3 C 79 % 1008,1 hPa 0,1 l/m 16,0 km/h (3 Bft) W-SW 248 0 min 0,000 mm 35 W/m 5,3 C 3,1 C 45,1 km/h (6 Bft) 100 %
17.02.2022 12:40 8,3 C 8,3 C 8,7 C 81 % 1008,0 hPa 0,0 l/m 12,0 km/h (2 Bft) NW 319 0 min 0,000 mm 53 W/m 5,2 C 4,6 C 40,2 km/h (6 Bft) 100 %
17.02.2022 12:50 8,2 C 8,2 C 8,3 C 81 % 1007,9 hPa 0,0 l/m 11,3 km/h (2 Bft) W 280 0 min 0,000 mm 69 W/m 5,1 C 4,8 C 33,8 km/h (5 Bft) 100 %
17.02.2022 13:00 8,3 C 8,2 C 8,3 C 81 % 1007,7 hPa 0,0 l/m 6,7 km/h (2 Bft) W 267 0 min 0,051 mm 83 W/m 5,2 C 8,1 C 33,8 km/h (5 Bft) 100 %
17.02.2022 13:10 8,5 C 8,3 C 8,5 C 80 % 1007,9 hPa 0,0 l/m 6,1 km/h (2 Bft) S-SW 213 0 min 0,000 mm 33 W/m 5,3 C 8,5 C 25,7 km/h (4 Bft) 99 %
17.02.2022 13:20 8,5 C 8,4 C 8,5 C 82 % 1008,2 hPa 0,0 l/m 2,8 km/h (1 Bft) N-NW 327 0 min 0,000 mm 60 W/m 5,6 C 8,5 C 17,7 km/h (3 Bft) 100 %
17.02.2022 13:30 8,4 C 8,4 C 8,5 C 85 % 1008,2 hPa 0,0 l/m 3,2 km/h (1 Bft) W-NW 289 0 min 0,000 mm 76 W/m 6,0 C 8,4 C 17,7 km/h (3 Bft) 100 %
17.02.2022 13:40 8,3 C 8,3 C 8,4 C 85 % 1008,3 hPa 0,0 l/m 1,8 km/h (1 Bft) W 264 0 min 0,000 mm 116 W/m 5,9 C 8,3 C 11,3 km/h (2 Bft) 100 %
17.02.2022 13:50 8,4 C 8,3 C 8,4 C 83 % 1008,3 hPa 0,0 l/m 4,3 km/h (1 Bft) W 265 0 min 0,000 mm 70 W/m 5,7 C 8,4 C 29,0 km/h (5 Bft) 100 %
17.02.2022 14:00 8,5 C 8,4 C 8,5 C 82 % 1008,5 hPa 0,0 l/m 8,7 km/h (2 Bft) W 267 0 min 0,051 mm 95 W/m 5,6 C 6,8 C 30,6 km/h (5 Bft) 100 %
17.02.2022 14:10 8,3 C 8,3 C 8,5 C 82 % 1008,3 hPa 0,0 l/m 8,0 km/h (2 Bft) W 259 0 min 0,000 mm 67 W/m 5,4 C 7,1 C 25,7 km/h (4 Bft) 100 %
17.02.2022 14:20 8,5 C 8,3 C 8,5 C 79 % 1008,5 hPa 0,0 l/m 15,7 km/h (3 Bft) SW 234 10 min 0,000 mm 190 W/m 5,1 C 3,0 C 46,7 km/h (6 Bft) 100 %
17.02.2022 14:30 8,7 C 8,5 C 8,7 C 78 % 1008,7 hPa 0,1 l/m 16,3 km/h (3 Bft) W-SW 245 0 min 0,000 mm 33 W/m 5,1 C 3,0 C 43,5 km/h (6 Bft) 100 %
17.02.2022 14:40 8,8 C 8,7 C 8,8 C 77 % 1008,7 hPa 0,0 l/m 20,0 km/h (4 Bft) W-SW 247 0 min 0,000 mm 40 W/m 5,0 C 1,7 C 43,5 km/h (6 Bft) 100 %
17.02.2022 14:50 8,8 C 8,8 C 8,8 C 76 % 1008,3 hPa 0,0 l/m 18,2 km/h (3 Bft) W 259 0 min 0,000 mm 58 W/m 4,8 C 2,4 C 45,1 km/h (6 Bft) 100 %
17.02.2022 15:00 8,8 C 8,8 C 8,8 C 77 % 1008,5 hPa 0,0 l/m 12,0 km/h (2 Bft) W-SW 253 0 min 0,050 mm 90 W/m 5,0 C 5,1 C 38,6 km/h (5 Bft) 100 %
17.02.2022 15:10 9,0 C 8,8 C 9,0 C 78 % 1008,6 hPa 0,0 l/m 13,3 km/h (3 Bft) W 267 0 min 0,000 mm 114 W/m 5,4 C 4,7 C 46,7 km/h (6 Bft) 100 %
17.02.2022 15:20 9,2 C 9,0 C 9,2 C 76 % 1008,8 hPa 0,0 l/m 20,7 km/h (4 Bft) W 264 0 min 0,000 mm 74 W/m 5,2 C 2,0 C 45,1 km/h (6 Bft) 100 %
17.02.2022 15:30 9,4 C 9,2 C 9,4 C 75 % 1008,5 hPa 0,0 l/m 17,8 km/h (3 Bft) W 261 0 min 0,000 mm 130 W/m 5,2 C 3,3 C 43,5 km/h (6 Bft) 100 %
17.02.2022 15:40 9,4 C 9,4 C 9,4 C 75 % 1008,7 hPa 0,0 l/m 14,2 km/h (3 Bft) W-SW 240 0 min 0,000 mm 58 W/m 5,2 C 4,8 C 40,2 km/h (6 Bft) 100 %
17.02.2022 15:50 9,3 C 9,3 C 9,4 C 75 % 1008,8 hPa 0,0 l/m 13,2 km/h (3 Bft) W 259 0 min 0,000 mm 23 W/m 5,1 C 5,1 C 43,5 km/h (6 Bft) 100 %
17.02.2022 16:00 9,3 C 9,3 C 9,3 C 76 % 1008,9 hPa 0,0 l/m 12,1 km/h (2 Bft) W 263 0 min 0,077 mm 11 W/m 5,3 C 5,7 C 37,0 km/h (5 Bft) 100 %
17.02.2022 16:10 9,3 C 9,3 C 9,3 C 75 % 1009,0 hPa 0,0 l/m 16,0 km/h (3 Bft) W-SW 243 0 min 0,000 mm 44 W/m 5,1 C 3,9 C 38,6 km/h (5 Bft) 100 %
17.02.2022 16:20 9,3 C 9,3 C 9,3 C 75 % 1009,3 hPa 0,0 l/m 15,7 km/h (3 Bft) W 271 0 min 0,000 mm 18 W/m 5,1 C 4,0 C 43,5 km/h (6 Bft) 100 %
17.02.2022 16:30 8,9 C 8,9 C 9,3 C 78 % 1009,8 hPa 0,1 l/m 17,1 km/h (3 Bft) W 259 0 min 0,000 mm 14 W/m 5,3 C 2,9 C 53,1 km/h (7 Bft) 100 %
17.02.2022 16:40 8,5 C 8,5 C 8,9 C 80 % 1009,8 hPa 0,1 l/m 21,2 km/h (4 Bft) SW 228 0 min 0,000 mm 12 W/m 5,3 C 0,9 C 45,1 km/h (6 Bft) 100 %
17.02.2022 16:50 8,5 C 8,4 C 8,5 C 80 % 1009,8 hPa 0,0 l/m 25,9 km/h (4 Bft) W-NW 298 0 min 0,000 mm 19 W/m 5,3 C -0,4 C 54,7 km/h (7 Bft) 100 %
17.02.2022 17:00 8,5 C 8,5 C 8,5 C 80 % 1010,0 hPa 0,0 l/m 21,4 km/h (4 Bft) W 271 0 min 0,050 mm 26 W/m 5,3 C 0,9 C 48,3 km/h (6 Bft) 100 %
17.02.2022 17:10 8,5 C 8,5 C 8,5 C 80 % 1010,0 hPa 0,0 l/m 8,4 km/h (2 Bft) W-SW 257 0 min 0,000 mm 5 W/m 5,3 C 7,0 C 33,8 km/h (5 Bft) 100 %
17.02.2022 17:20 8,4 C 8,4 C 8,5 C 80 % 1010,3 hPa 0,0 l/m 8,2 km/h (2 Bft) W-SW 257 0 min 0,000 mm 5 W/m 5,2 C 7,0 C 32,2 km/h (5 Bft) 100 %
17.02.2022 17:30 8,4 C 8,4 C 8,4 C 79 % 1010,7 hPa 0,0 l/m 19,3 km/h (3 Bft) W-SW 257 0 min 0,000 mm 7 W/m 5,0 C 1,5 C 48,3 km/h (6 Bft) 100 %
17.02.2022 17:40 8,5 C 8,4 C 8,5 C 77 % 1011,0 hPa 0,0 l/m 20,1 km/h (4 Bft) W 274 0 min 0,000 mm 5 W/m 4,7 C 1,3 C 56,3 km/h (7 Bft) 100 %
17.02.2022 17:50 8,5 C 8,4 C 8,5 C 77 % 1011,5 hPa 0,0 l/m 16,1 km/h (3 Bft) SW 227 0 min 0,000 mm 0 W/m 4,7 C 2,8 C 41,8 km/h (6 Bft) 100 %
17.02.2022 18:00 8,4 C 8,4 C 8,5 C 76 % 1011,7 hPa 0,0 l/m 10,8 km/h (2 Bft) W-NW 290 0 min 0,000 mm 0 W/m 4,4 C 5,3 C 40,2 km/h (6 Bft) 91 %
17.02.2022 18:10 8,3 C 8,3 C 8,4 C 76 % 1012,0 hPa 0,0 l/m 10,0 km/h (2 Bft) W-SW 257 0 min 0,025 mm 0 W/m 4,3 C 5,7 C 33,8 km/h (5 Bft) 100 %
17.02.2022 18:20 8,2 C 8,2 C 8,3 C 77 % 1012,1 hPa 0,0 l/m 5,6 km/h (1 Bft) W-SW 250 0 min 0,001 mm 0 W/m 4,4 C 8,2 C 29,0 km/h (5 Bft) 100 %
17.02.2022 18:30 8,2 C 8,2 C 8,2 C 77 % 1012,3 hPa 0,0 l/m 3,1 km/h (1 Bft) W-SW 239 0 min 0,000 mm 0 W/m 4,4 C 8,2 C 19,3 km/h (3 Bft) 100 %
17.02.2022 18:40 8,1 C 8,1 C 8,2 C 77 % 1012,4 hPa 0,0 l/m 0,8 km/h (0 Bft) W-SW 251 0 min 0,000 mm 0 W/m 4,3 C 8,1 C 8,0 km/h (2 Bft) 100 %
17.02.2022 18:50 7,9 C 7,9 C 8,1 C 78 % 1012,6 hPa 0,0 l/m 1,3 km/h (1 Bft) W-SW 241 0 min 0,000 mm 0 W/m 4,3 C 7,9 C 9,7 km/h (2 Bft) 100 %
17.02.2022 19:00 7,8 C 7,8 C 7,9 C 79 % 1012,7 hPa 0,0 l/m 1,9 km/h (1 Bft) SW 220 0 min 0,025 mm 0 W/m 4,4 C 7,8 C 9,7 km/h (2 Bft) 100 %
17.02.2022 19:10 7,9 C 7,8 C 7,9 C 79 % 1012,9 hPa 0,0 l/m 2,6 km/h (1 Bft) SW 234 0 min 0,000 mm 0 W/m 4,5 C 7,9 C 17,7 km/h (3 Bft) 100 %
17.02.2022 19:20 8,0 C 7,9 C 8,0 C 79 % 1013,1 hPa 0,0 l/m 2,7 km/h (1 Bft) W-SW 250 0 min 0,000 mm 0 W/m 4,6 C 8,0 C 17,7 km/h (3 Bft) 100 %
17.02.2022 19:30 8,0 C 8,0 C 8,1 C 79 % 1013,1 hPa 0,0 l/m 3,0 km/h (1 Bft) W-SW 250 0 min 0,000 mm 0 W/m 4,6 C 8,0 C 14,5 km/h (3 Bft) 100 %
17.02.2022 19:40 8,1 C 8,0 C 8,1 C 79 % 1013,3 hPa 0,0 l/m 3,4 km/h (1 Bft) SW 216 0 min 0,000 mm 0 W/m 4,7 C 8,1 C 16,1 km/h (3 Bft) 100 %
17.02.2022 19:50 8,1 C 8,0 C 8,1 C 78 % 1013,4 hPa 0,0 l/m 5,5 km/h (1 Bft) SW 229 0 min 0,000 mm 0 W/m 4,5 C 8,1 C 19,3 km/h (3 Bft) 100 %
17.02.2022 20:00 8,1 C 8,0 C 8,1 C 77 % 1013,5 hPa 0,0 l/m 5,5 km/h (1 Bft) W 263 0 min 0,026 mm 0 W/m 4,3 C 8,1 C 20,9 km/h (4 Bft) 100 %
17.02.2022 20:10 8,2 C 8,1 C 8,2 C 76 % 1013,6 hPa 0,0 l/m 6,2 km/h (2 Bft) W-SW 254 0 min 0,000 mm 0 W/m 4,2 C 8,2 C 20,9 km/h (4 Bft) 100 %
17.02.2022 20:20 8,2 C 8,2 C 8,2 C 76 % 1013,8 hPa 0,0 l/m 6,2 km/h (2 Bft) W-SW 254 0 min 0,000 mm 0 W/m 4,2 C 8,2 C 20,9 km/h (4 Bft) 100 %
17.02.2022 20:30 8,3 C 8,2 C 8,3 C 76 % 1013,7 hPa 0,0 l/m 9,0 km/h (2 Bft) NW 308 0 min 0,000 mm 0 W/m 4,3 C 6,4 C 37,0 km/h (5 Bft) 100 %
17.02.2022 20:40 8,4 C 8,3 C 8,4 C 76 % 1013,7 hPa 0,0 l/m 5,3 km/h (1 Bft) SW 236 0 min 0,000 mm 0 W/m 4,4 C 8,4 C 22,5 km/h (4 Bft) 100 %
17.02.2022 20:50 8,4 C 8,3 C 8,4 C 75 % 1013,7 hPa 0,0 l/m 7,4 km/h (2 Bft) W 267 0 min 0,000 mm 0 W/m 4,2 C 7,6 C 22,5 km/h (4 Bft) 100 %
17.02.2022 21:00 8,4 C 8,3 C 8,4 C 75 % 1013,9 hPa 0,0 l/m 6,3 km/h (2 Bft) W-SW 252 0 min 0,025 mm 0 W/m 4,2 C 8,4 C 30,6 km/h (5 Bft) 100 %
17.02.2022 21:10 8,3 C 8,3 C 8,4 C 75 % 1014,0 hPa 0,0 l/m 6,4 km/h (2 Bft) W 270 0 min 0,000 mm 0 W/m 4,1 C 8,3 C 29,0 km/h (5 Bft) 100 %
17.02.2022 21:20 8,3 C 8,3 C 8,3 C 74 % 1013,9 hPa 0,0 l/m 8,0 km/h (2 Bft) W 270 0 min 0,000 mm 0 W/m 3,9 C 7,1 C 25,7 km/h (4 Bft) 100 %
17.02.2022 21:30 8,3 C 8,3 C 8,3 C 74 % 1013,9 hPa 0,0 l/m 8,0 km/h (2 Bft) W 270 0 min 0,000 mm 0 W/m 3,9 C 7,1 C 20,9 km/h (4 Bft) 100 %
17.02.2022 21:40 8,2 C 8,2 C 8,3 C 73 % 1013,9 hPa 0,0 l/m 8,0 km/h (2 Bft) W 270 0 min 0,000 mm 0 W/m 3,7 C 7,0 C 30,6 km/h (5 Bft) 100 %
17.02.2022 21:50 8,2 C 8,2 C 8,2 C 73 % 1013,9 hPa 0,0 l/m 4,8 km/h (1 Bft) W 270 0 min 0,000 mm 0 W/m 3,7 C 8,2 C 19,3 km/h (3 Bft) 100 %
17.02.2022 22:00 8,2 C 8,2 C 8,2 C 73 % 1013,8 hPa 0,0 l/m 4,8 km/h (1 Bft) W 270 0 min 0,025 mm 0 W/m 3,7 C 8,2 C 30,6 km/h (5 Bft) 100 %
17.02.2022 22:10 8,1 C 8,1 C 8,2 C 73 % 1013,9 hPa 0,0 l/m 3,2 km/h (1 Bft) W 270 0 min 0,000 mm 0 W/m 3,6 C 8,1 C 16,1 km/h (3 Bft) 100 %
17.02.2022 22:20 8,1 C 8,0 C 8,1 C 74 % 1014,0 hPa 0,0 l/m 8,0 km/h (2 Bft) W 270 0 min 0,000 mm 0 W/m 3,8 C 6,9 C 25,7 km/h (4 Bft) 100 %
17.02.2022 22:30 8,1 C 8,1 C 8,1 C 75 % 1014,2 hPa 0,0 l/m 4,8 km/h (1 Bft) W 270 0 min 0,000 mm 0 W/m 3,9 C 8,1 C 27,4 km/h (4 Bft) 100 %
17.02.2022 22:40 8,1 C 8,1 C 8,1 C 75 % 1014,1 hPa 0,0 l/m 4,8 km/h (1 Bft) W 270 0 min 0,000 mm 0 W/m 3,9 C 8,1 C 19,3 km/h (3 Bft) 100 %
17.02.2022 22:50 8,2 C 8,1 C 8,2 C 75 % 1013,9 hPa 0,0 l/m 6,4 km/h (2 Bft) W 270 0 min 0,000 mm 0 W/m 4,0 C 8,2 C 25,7 km/h (4 Bft) 100 %
17.02.2022 23:00 8,2 C 8,2 C 8,2 C 75 % 1013,7 hPa 0,0 l/m 8,0 km/h (2 Bft) W 270 0 min 0,025 mm 0 W/m 4,0 C 7,0 C 24,1 km/h (4 Bft) 100 %
17.02.2022 23:10 8,2 C 8,2 C 8,2 C 76 % 1013,9 hPa 0,0 l/m 4,8 km/h (1 Bft) W-SW 247 0 min 0,000 mm 0 W/m 4,2 C 8,2 C 35,4 km/h (5 Bft) 100 %
17.02.2022 23:20 8,1 C 8,1 C 8,2 C 76 % 1013,8 hPa 0,0 l/m 3,2 km/h (1 Bft) SW 225 0 min 0,000 mm 0 W/m 4,1 C 8,1 C 20,9 km/h (4 Bft) 100 %
17.02.2022 23:30 8,1 C 8,1 C 8,2 C 77 % 1013,8 hPa 0,0 l/m 3,2 km/h (1 Bft) SW 225 0 min 0,000 mm 0 W/m 4,3 C 8,1 C 19,3 km/h (3 Bft) 100 %
17.02.2022 23:40 8,1 C 8,1 C 8,1 C 77 % 1013,9 hPa 0,0 l/m 6,4 km/h (2 Bft) S-SW 202 0 min 0,000 mm 0 W/m 4,3 C 8,1 C 24,1 km/h (4 Bft) 100 %
17.02.2022 23:50 8,1 C 8,1 C 8,1 C 78 % 1014,0 hPa 0,0 l/m 4,8 km/h (1 Bft) SW 225 0 min 0,000 mm 0 W/m 4,5 C 8,1 C 16,1 km/h (3 Bft) 100 %
_ Min-Zeit 19:00 19:00 19:00 10:40 04:10 - 18:40 - - - - - 22:10 16:50 18:40 00:10
Minimum _ 7,8 C 7,8 C 7,9 C 66 % 999,2 hPa - 0,8 km/h (0 Bft) - - - - - 3,6 C -0,4 C 8,0 km/h (2 Bft) 79 %
_ Max-Zeit 00:30 00:50 00:30 02:10 22:30 05:00 01:10 - - 09:00 10:00 09:00 04:50 08:10 05:20 00:30
Maximum _ 11,7 C 11,7 C 11,7 C 92 % 1014,2 hPa 1,0 l/m 30,6 km/h
SW (5 Bft)
- - 10 min 0,102 mm 218 W/m 9,9 C 10,1 C 66,0 km/h
S-SW (8 Bft)
100 %
Durchschnitt _ 9,6 C 9,5 C 9,6 C 79 % 1006,8 hPa #5,0 l/m 15,0 km/h (3 Bft) W - #30 min. #1,066 mm 65 W/m 6,1 C 5,2 C 40,3 km/h (6 Bft) 99 %
PRIVATE WETTERSTATION BILLIGHEIM-ALLFELD - www.neckar-odenwald-wetter.de - Holger Sonntag